createdAt,value
2022-10-17T00:01:25.472Z,6.43
2022-10-17T00:04:27.692Z,6.90
2022-10-17T00:07:30.918Z,6.00
2022-10-17T00:10:33.332Z,6.40
2022-10-17T00:13:36.003Z,6.57
2022-10-17T00:16:38.189Z,6.10
2022-10-17T00:19:40.368Z,6.13
2022-10-17T00:22:42.726Z,5.47
2022-10-17T00:25:44.898Z,6.38
2022-10-17T00:28:48.763Z,5.25
2022-10-17T00:35:02.443Z,6.72
2022-10-17T00:38:04.608Z,5.97
2022-10-17T00:41:08.064Z,6.35
2022-10-17T00:44:31.903Z,6.90
2022-10-17T00:47:35.953Z,5.30
2022-10-17T00:50:41.731Z,5.78
2022-10-17T00:53:44.326Z,5.75
2022-10-17T00:56:47.824Z,5.68
2022-10-17T00:59:53.170Z,6.97
2022-10-17T01:02:55.486Z,5.90
2022-10-17T01:05:57.738Z,5.53
2022-10-17T01:09:00.174Z,6.32
2022-10-17T01:12:02.301Z,5.07
2022-10-17T01:15:47.572Z,5.68
2022-10-17T01:19:13.686Z,5.40
2022-10-17T01:22:22.215Z,6.25
2022-10-17T01:25:46.473Z,6.32
2022-10-17T01:29:00.519Z,6.00
2022-10-17T01:32:17.810Z,5.57
2022-10-17T01:36:06.948Z,6.33
2022-10-17T01:39:30.123Z,6.75
2022-10-17T01:42:48.724Z,5.85
2022-10-17T01:46:00.653Z,5.97
2022-10-17T01:49:05.857Z,5.78
2022-10-17T01:52:19.869Z,7.00
2022-10-17T01:55:29.306Z,6.57
2022-10-17T01:58:44.180Z,5.75
2022-10-17T02:01:52.376Z,6.38
2022-10-17T02:04:56.955Z,5.70
2022-10-17T02:07:59.179Z,6.50
2022-10-17T02:11:07.840Z,5.70
2022-10-17T02:14:42.016Z,5.85
2022-10-17T02:18:21.744Z,6.38
2022-10-17T02:22:01.838Z,7.25
2022-10-17T02:25:44.495Z,6.00
2022-10-17T02:29:00.613Z,5.60
2022-10-17T02:32:12.339Z,6.03
2022-10-17T02:35:15.991Z,5.50
2022-10-17T02:38:18.872Z,5.75
2022-10-17T02:41:24.387Z,6.27
2022-10-17T02:44:29.217Z,5.70
2022-10-17T02:48:03.430Z,5.45
2022-10-17T02:51:28.784Z,5.90
2022-10-17T02:54:45.797Z,6.50
2022-10-17T02:57:56.043Z,6.13
2022-10-17T03:00:59.443Z,6.10
2022-10-17T03:04:11.079Z,5.13
2022-10-17T03:07:13.589Z,6.20
2022-10-17T03:10:16.714Z,6.57
2022-10-17T03:13:19.333Z,5.97
2022-10-17T03:16:21.911Z,6.05
2022-10-17T03:19:24.292Z,5.68
2022-10-17T03:22:28.511Z,7.20
2022-10-17T03:25:32.742Z,5.60
2022-10-17T03:28:36.111Z,6.33
2022-10-17T03:31:38.565Z,6.22
2022-10-17T03:34:42.101Z,6.53
2022-10-17T03:37:45.364Z,6.30
2022-10-17T03:40:55.126Z,6.55
2022-10-17T03:43:57.562Z,5.90
2022-10-17T03:47:00.597Z,5.50
2022-10-17T03:50:03.451Z,6.40
2022-10-17T03:53:08.840Z,6.50
2022-10-17T03:56:13.797Z,5.50
2022-10-17T03:59:16.934Z,6.10
2022-10-17T04:02:26.151Z,5.28
2022-10-17T04:05:28.344Z,6.35
2022-10-17T04:08:32.056Z,6.07
2022-10-17T04:11:47.907Z,6.07
2022-10-17T04:14:50.121Z,6.10
2022-10-17T04:17:52.817Z,5.95
2022-10-17T04:20:55.005Z,6.13
2022-10-17T04:23:59.789Z,6.18
2022-10-17T04:27:31.071Z,6.13
2022-10-17T04:30:33.654Z,5.70
2022-10-17T04:33:35.971Z,5.18
2022-10-17T04:36:38.547Z,5.93
2022-10-17T04:39:40.742Z,6.35
2022-10-17T04:42:42.912Z,5.85
2022-10-17T04:45:47.663Z,6.20
2022-10-17T04:48:50.006Z,6.15
2022-10-17T04:51:52.312Z,6.05
2022-10-17T04:54:58.704Z,6.18
2022-10-17T04:58:00.896Z,6.15
2022-10-17T05:01:06.331Z,5.50
2022-10-17T05:04:08.798Z,6.10
2022-10-17T05:07:11.125Z,5.75
2022-10-17T05:10:29.026Z,5.78
2022-10-17T05:13:32.919Z,5.70
2022-10-17T05:16:35.929Z,6.03
2022-10-17T05:19:38.186Z,5.43
2022-10-17T05:22:42.352Z,5.65
2022-10-17T05:25:46.413Z,5.00
2022-10-17T05:28:48.675Z,6.45
2022-10-17T05:31:53.004Z,6.07
2022-10-17T05:34:55.613Z,6.03
2022-10-17T05:38:00.108Z,5.15
2022-10-17T05:41:04.702Z,6.93
2022-10-17T05:44:07.486Z,6.07
2022-10-17T05:47:15.471Z,5.53
2022-10-17T05:50:17.869Z,5.80
2022-10-17T05:53:40.940Z,22.10
2022-10-17T05:56:52.455Z,18.65
2022-10-17T05:59:57.459Z,17.92
2022-10-17T06:02:59.675Z,20.17
2022-10-17T06:06:10.141Z,13.05
2022-10-17T06:09:15.015Z,18.15
2022-10-17T06:12:21.288Z,17.35
2022-10-17T06:15:24.183Z,15.88
2022-10-17T06:18:33.043Z,19.43
2022-10-17T06:21:38.633Z,15.13
2022-10-17T06:24:46.249Z,13.93
2022-10-17T06:27:49.871Z,20.33
2022-10-17T06:30:52.134Z,16.17
2022-10-17T06:33:54.655Z,14.03
2022-10-17T06:40:07.944Z,14.20
2022-10-17T06:43:10.417Z,14.95
2022-10-17T06:46:30.673Z,15.13
2022-10-17T06:49:38.598Z,16.67
2022-10-17T06:52:58.670Z,14.90
2022-10-17T06:56:19.427Z,16.38
2022-10-17T06:59:29.046Z,17.27
2022-10-17T07:02:39.215Z,14.30
2022-10-17T07:05:41.445Z,16.13
2022-10-17T07:08:45.509Z,14.07
2022-10-17T07:11:50.510Z,17.33
2022-10-17T07:14:53.925Z,14.20
2022-10-17T07:17:57.516Z,13.98
2022-10-17T07:21:01.086Z,15.07
2022-10-17T07:24:03.712Z,13.63
2022-10-17T07:27:06.180Z,14.43
2022-10-17T07:30:10.386Z,17.45
2022-10-17T07:33:15.449Z,18.00
2022-10-17T07:36:18.434Z,9.53
2022-10-17T07:39:20.729Z,14.07
2022-10-17T07:42:23.342Z,10.43
2022-10-17T07:45:27.690Z,12.65
2022-10-17T07:48:30.654Z,11.88
2022-10-17T07:51:33.601Z,14.13
2022-10-17T07:54:35.797Z,14.85
2022-10-17T07:57:38.022Z,15.60
2022-10-17T08:00:40.652Z,14.30
2022-10-17T08:03:48.757Z,13.55
2022-10-17T08:06:56.398Z,13.90
2022-10-17T08:10:03.230Z,15.65
2022-10-17T08:13:07.650Z,12.80
2022-10-17T08:16:16.550Z,12.98
2022-10-17T08:19:18.810Z,12.65
2022-10-17T08:22:21.024Z,12.60
2022-10-17T08:25:23.895Z,14.95
2022-10-17T08:28:26.232Z,12.82
2022-10-17T08:31:28.848Z,13.02
2022-10-17T08:34:31.012Z,16.85
2022-10-17T08:37:33.537Z,14.47
2022-10-17T08:40:36.482Z,12.60
2022-10-17T08:44:22.075Z,17.45
2022-10-17T08:47:34.009Z,14.15
2022-10-17T08:50:45.733Z,13.82
2022-10-17T08:53:54.159Z,12.40
2022-10-17T08:56:57.630Z,18.88
2022-10-17T08:59:59.923Z,15.32
2022-10-17T09:03:32.162Z,21.15
2022-10-17T09:07:02.833Z,17.38
2022-10-17T09:10:26.575Z,25.47
2022-10-17T09:13:34.706Z,20.90
2022-10-17T09:17:07.438Z,19.83
2022-10-17T09:20:25.841Z,23.63
2022-10-17T09:23:34.883Z,26.85
2022-10-17T09:26:40.482Z,27.63
2022-10-17T09:29:48.776Z,30.63
2022-10-17T09:32:51.372Z,22.33
2022-10-17T09:35:54.772Z,22.20
2022-10-17T09:38:59.765Z,18.73
2022-10-17T09:42:03.180Z,16.80
2022-10-17T09:45:11.245Z,22.08
2022-10-17T09:48:25.085Z,17.92
2022-10-17T09:51:27.677Z,18.10
2022-10-17T09:54:53.245Z,12.13
2022-10-17T09:57:58.240Z,19.17
2022-10-17T10:01:26.132Z,19.75
2022-10-17T10:04:30.447Z,17.98
2022-10-17T10:07:36.613Z,15.57
2022-10-17T10:10:43.022Z,20.33
2022-10-17T10:13:47.822Z,25.07
2022-10-17T10:16:53.673Z,15.40
2022-10-17T10:19:56.271Z,13.43
2022-10-17T10:23:17.720Z,18.20
2022-10-17T10:26:29.506Z,17.73
2022-10-17T10:29:41.364Z,15.03
2022-10-17T10:32:47.874Z,14.98
2022-10-17T10:35:57.630Z,16.00
2022-10-17T10:39:02.458Z,13.07
2022-10-17T10:42:18.599Z,16.52
2022-10-17T10:45:43.346Z,15.87
2022-10-17T10:48:58.436Z,12.88
2022-10-17T10:52:03.572Z,12.45
2022-10-17T10:55:23.853Z,13.35
2022-10-17T10:58:53.774Z,11.98
2022-10-17T11:02:20.867Z,7.90
2022-10-17T11:05:28.875Z,11.88
2022-10-17T11:09:04.108Z,9.52
2022-10-17T11:12:13.204Z,13.88
2022-10-17T11:15:18.628Z,10.80
2022-10-17T11:18:30.080Z,10.03
2022-10-17T11:21:46.892Z,8.20
2022-10-17T11:24:56.894Z,7.15
2022-10-17T11:28:03.785Z,12.85
2022-10-17T11:31:13.475Z,10.25
2022-10-17T11:34:20.719Z,8.80
2022-10-17T11:37:40.253Z,8.63
2022-10-17T11:40:49.600Z,8.23
2022-10-17T11:43:59.651Z,10.38
2022-10-17T11:47:28.237Z,7.53
2022-10-17T11:54:15.989Z,8.30
2022-10-17T11:57:34.827Z,10.35
2022-10-17T12:00:48.875Z,11.75
2022-10-17T12:04:30.797Z,9.80
2022-10-17T12:07:48.669Z,8.80
2022-10-17T12:11:01.200Z,8.38
2022-10-17T12:14:23.813Z,8.05
2022-10-17T12:17:30.070Z,9.63
2022-10-17T12:20:35.528Z,7.88
2022-10-17T12:23:39.014Z,8.30
2022-10-17T12:26:41.251Z,10.32
2022-10-17T12:29:43.516Z,8.40
2022-10-17T12:33:07.836Z,14.10
2022-10-17T12:36:22.601Z,9.02
2022-10-17T12:39:24.702Z,6.83
2022-10-17T12:42:31.874Z,7.85
2022-10-17T12:45:51.401Z,8.05
2022-10-17T12:49:01.522Z,8.05
2022-10-17T12:52:20.869Z,9.25
2022-10-17T12:55:26.626Z,9.07
2022-10-17T12:58:30.705Z,9.95
2022-10-17T13:01:36.763Z,6.82
2022-10-17T13:04:39.070Z,8.07
2022-10-17T13:07:44.109Z,10.38
2022-10-17T13:10:51.598Z,11.10
2022-10-17T13:13:58.260Z,6.63
2022-10-17T13:17:05.513Z,9.63
2022-10-17T13:20:24.530Z,12.32
2022-10-17T13:23:34.769Z,8.20
2022-10-17T13:26:36.934Z,8.47
2022-10-17T13:29:44.388Z,10.27
2022-10-17T13:32:46.575Z,9.40
2022-10-17T13:36:00.113Z,13.93
2022-10-17T13:39:16.939Z,16.73
2022-10-17T13:42:39.378Z,8.57
2022-10-17T13:45:46.996Z,8.05
2022-10-17T13:48:49.649Z,7.05
2022-10-17T13:51:54.080Z,7.97
2022-10-17T13:55:08.174Z,6.80
2022-10-17T13:58:17.522Z,8.93
2022-10-17T14:01:21.127Z,9.30
2022-10-17T14:04:23.331Z,8.55
2022-10-17T14:08:11.325Z,7.30
2022-10-17T14:11:22.732Z,8.07
2022-10-17T14:14:26.143Z,9.57
2022-10-17T14:17:30.089Z,8.13
2022-10-17T14:21:30.406Z,6.85
2022-10-17T14:24:14.302Z,7.15
2022-10-17T14:27:39.695Z,7.93
2022-10-17T14:30:56.903Z,5.87
2022-10-17T14:34:01.752Z,8.10
2022-10-17T14:37:10.549Z,6.10
2022-10-17T14:40:17.860Z,6.93
2022-10-17T14:43:23.714Z,12.93
2022-10-17T14:46:26.353Z,5.83
2022-10-17T14:49:34.655Z,8.35
2022-10-17T14:52:38.858Z,6.90
2022-10-17T14:55:55.759Z,6.53
2022-10-17T14:58:57.988Z,7.53
2022-10-17T15:02:00.145Z,7.50
2022-10-17T15:05:02.284Z,6.15
2022-10-17T15:08:12.881Z,7.50
2022-10-17T15:11:15.023Z,7.70
2022-10-17T15:14:17.206Z,6.45
2022-10-17T15:17:23.384Z,8.33
2022-10-17T15:20:27.981Z,7.43
2022-10-17T15:23:30.116Z,6.00
2022-10-17T15:26:34.096Z,5.65
2022-10-17T15:29:36.298Z,6.70
2022-10-17T15:32:38.479Z,6.73
2022-10-17T15:35:42.617Z,7.80
2022-10-17T15:38:44.785Z,6.82
2022-10-17T15:41:48.082Z,7.97
2022-10-17T15:44:50.456Z,6.28
2022-10-17T15:47:55.838Z,4.97
2022-10-17T15:50:59.099Z,7.35
2022-10-17T15:54:02.194Z,7.38
2022-10-17T15:57:04.498Z,5.90
2022-10-17T16:00:16.557Z,8.70
2022-10-17T16:03:19.076Z,7.50
2022-10-17T16:06:22.818Z,7.25
2022-10-17T16:09:25.095Z,6.63
2022-10-17T16:12:29.030Z,6.50
2022-10-17T16:15:31.239Z,8.55
2022-10-17T16:18:33.386Z,5.87
2022-10-17T16:21:38.033Z,6.20
2022-10-17T16:24:40.234Z,7.93
2022-10-17T16:27:42.503Z,8.13
2022-10-17T16:30:46.125Z,6.35
2022-10-17T16:33:50.993Z,5.97
2022-10-17T16:36:53.154Z,9.07
2022-10-17T16:39:55.309Z,6.95
2022-10-17T16:42:57.491Z,7.43
2022-10-17T16:45:59.647Z,6.18
2022-10-17T16:49:04.145Z,6.63
2022-10-17T16:52:06.405Z,6.07
2022-10-17T16:55:09.882Z,8.02
2022-10-17T16:58:12.068Z,6.63
2022-10-17T17:01:20.005Z,6.47
2022-10-17T17:04:22.541Z,6.50
2022-10-17T17:07:24.773Z,8.60
2022-10-17T17:10:27.030Z,9.80
2022-10-17T17:13:30.086Z,7.88
2022-10-17T17:16:33.838Z,8.32
2022-10-17T17:19:36.006Z,11.40
2022-10-17T17:22:38.503Z,10.57
2022-10-17T17:25:40.726Z,9.02
2022-10-17T17:28:43.872Z,9.32
2022-10-17T17:31:47.059Z,9.30
2022-10-17T17:34:49.389Z,10.77
2022-10-17T17:37:51.633Z,11.32
2022-10-17T17:40:53.797Z,11.98
2022-10-17T17:43:56.834Z,10.50
2022-10-17T17:46:59.004Z,11.40
2022-10-17T17:50:02.380Z,14.70
2022-10-17T17:53:05.489Z,13.60
2022-10-17T17:56:10.921Z,14.13
2022-10-17T17:59:13.463Z,12.77
2022-10-17T18:02:15.899Z,13.27
2022-10-17T18:05:18.164Z,11.10
2022-10-17T18:08:20.692Z,14.27
2022-10-17T18:11:23.161Z,11.13
2022-10-17T18:14:25.882Z,12.23
2022-10-17T18:17:28.176Z,11.77
2022-10-17T18:20:30.507Z,15.00
2022-10-17T18:23:32.719Z,11.88
2022-10-17T18:26:35.296Z,14.57
2022-10-17T18:29:37.469Z,14.45
2022-10-17T18:32:40.692Z,14.63
2022-10-17T18:35:43.009Z,13.17
2022-10-17T18:38:45.304Z,12.88
2022-10-17T18:41:47.540Z,14.02
2022-10-17T18:44:49.970Z,14.30
2022-10-17T18:47:54.696Z,11.05
2022-10-17T18:50:56.861Z,11.63
2022-10-17T18:53:59.107Z,10.85
2022-10-17T18:57:01.302Z,12.23
2022-10-17T19:00:05.324Z,11.48
2022-10-17T19:03:08.317Z,14.40
2022-10-17T19:06:13.388Z,12.73
2022-10-17T19:09:16.009Z,11.75
2022-10-17T19:12:18.353Z,12.70
2022-10-17T19:15:23.734Z,13.23
2022-10-17T19:18:28.212Z,11.23
2022-10-17T19:21:30.861Z,13.27
2022-10-17T19:24:33.324Z,12.25
2022-10-17T19:27:35.756Z,14.00
2022-10-17T19:30:41.364Z,14.00
2022-10-17T19:33:43.587Z,11.60
2022-10-17T19:36:46.274Z,15.33
2022-10-17T19:39:49.218Z,16.45
2022-10-17T19:42:52.100Z,17.23
2022-10-17T19:45:59.140Z,16.90
2022-10-17T19:49:02.101Z,14.95
2022-10-17T19:52:05.610Z,15.97
2022-10-17T19:55:08.172Z,15.20
2022-10-17T19:58:10.804Z,17.25
2022-10-17T20:01:18.874Z,17.13
2022-10-17T20:04:21.928Z,18.63
2022-10-17T20:07:24.146Z,16.47
2022-10-17T20:10:26.320Z,19.35
2022-10-17T20:13:28.541Z,15.57
2022-10-17T20:16:32.440Z,15.32
2022-10-17T20:19:34.666Z,20.13
2022-10-17T20:22:36.867Z,16.87
2022-10-17T20:25:39.054Z,17.80
2022-10-17T20:28:41.855Z,17.23
2022-10-17T20:31:45.391Z,17.00
2022-10-17T20:34:47.552Z,15.70
2022-10-17T20:37:49.783Z,16.77
2022-10-17T20:40:51.965Z,17.45
2022-10-17T20:43:55.425Z,18.63
2022-10-17T20:47:02.098Z,18.13
2022-10-17T20:50:05.114Z,18.50
2022-10-17T20:53:35.025Z,17.43
2022-10-17T20:56:31.359Z,19.25
2022-10-17T20:59:36.039Z,18.15
2022-10-17T21:02:38.216Z,18.73
2022-10-17T21:05:40.583Z,16.27
2022-10-17T21:08:43.617Z,18.97
2022-10-17T21:11:45.870Z,18.48
2022-10-17T21:14:48.149Z,18.45
2022-10-17T21:17:50.298Z,16.65
2022-10-17T21:20:52.642Z,17.15
2022-10-17T21:23:58.215Z,14.87
2022-10-17T21:27:00.527Z,15.27
2022-10-17T21:30:04.538Z,15.18
2022-10-17T21:33:06.750Z,18.95
2022-10-17T21:36:09.836Z,16.15
2022-10-17T21:39:13.539Z,17.90
2022-10-17T21:42:15.746Z,17.88
2022-10-17T21:45:25.379Z,17.25
2022-10-17T21:48:27.891Z,17.70
2022-10-17T21:51:30.062Z,17.98
2022-10-17T21:54:32.259Z,19.40
2022-10-17T21:57:34.403Z,18.50
2022-10-17T22:00:36.637Z,19.00
2022-10-17T22:03:44.223Z,16.92
2022-10-17T22:06:51.236Z,20.15
2022-10-17T22:09:53.553Z,20.27
2022-10-17T22:12:55.709Z,18.70
2022-10-17T22:16:02.035Z,17.58
2022-10-17T22:19:06.665Z,16.77
2022-10-17T22:22:09.082Z,19.98
2022-10-17T22:25:11.389Z,19.27
2022-10-17T22:28:13.545Z,16.92
2022-10-17T22:31:15.755Z,19.15
2022-10-17T22:34:18.601Z,17.60
2022-10-17T22:37:20.823Z,21.02
2022-10-17T22:40:22.966Z,19.10
2022-10-17T22:43:25.220Z,21.08
2022-10-17T22:46:27.797Z,17.33
2022-10-17T22:49:29.961Z,17.27
2022-10-17T22:52:32.326Z,18.05
2022-10-17T22:55:34.696Z,17.50
2022-10-17T22:58:37.969Z,17.27
2022-10-17T23:01:40.165Z,17.95
2022-10-17T23:04:42.427Z,20.92
2022-10-17T23:07:44.580Z,21.67
2022-10-17T23:10:47.830Z,17.87
2022-10-17T23:13:50.041Z,19.00
2022-10-17T23:16:53.736Z,19.23
2022-10-17T23:19:57.720Z,17.40
2022-10-17T23:23:00.111Z,17.00
2022-10-17T23:26:11.367Z,15.20
2022-10-17T23:29:13.591Z,20.60
2022-10-17T23:32:15.750Z,17.25
2022-10-17T23:35:17.968Z,17.80
2022-10-17T23:38:20.122Z,18.20
2022-10-17T23:41:22.317Z,18.20
2022-10-17T23:44:24.542Z,17.60
2022-10-17T23:47:26.733Z,16.73
2022-10-17T23:50:28.890Z,21.67
2022-10-17T23:53:31.319Z,16.42
2022-10-17T23:56:33.506Z,18.03
2022-10-17T23:59:35.648Z,16.55
